Time;durP1;ratioP1;P1;durP2;ratioP2;P2;SDS_P1;SDS_P2;PMS_P1;PMS_P2;Temp;Humidity;BMP_temperature;BMP_pressure;BME280_temperature;BME280_humidity;BME280_pressure;Samples;Min_cycle;Max_cycle;Signal;HPM_P1;HPM_P2
2023/08/22 00:01:57;;;;;;;9.20;3.78;;;19.10;91.50;;;;;;5018049;28;20033;-78
2023/08/22 00:04:23;;;;;;;7.72;4.57;;;19.10;91.60;;;;;;5001943;28;20036;-77
2023/08/22 00:06:48;;;;;;;7.05;3.42;;;19.10;91.40;;;;;;5013312;28;20097;-77
2023/08/22 00:09:14;;;;;;;4.55;2.88;;;19.00;91.50;;;;;;5015298;28;20433;-78
2023/08/22 00:11:39;;;;;;;3.28;2.97;;;19.10;91.60;;;;;;4986393;28;20050;-78
2023/08/22 00:14:06;;;;;;;6.97;3.55;;;19.00;91.60;;;;;;5015321;28;20053;-78
2023/08/22 00:16:32;;;;;;;4.80;3.15;;;19.00;91.60;;;;;;4983100;28;20092;-78
2023/08/22 00:18:58;;;;;;;7.15;4.47;;;18.90;91.70;;;;;;5000868;28;20512;-78
2023/08/22 00:21:24;;;;;;;3.80;3.00;;;18.80;91.80;;;;;;5010508;28;20026;-78
2023/08/22 00:23:49;;;;;;;4.05;3.35;;;18.80;91.80;;;;;;5014092;28;20060;-78
2023/08/22 00:26:15;;;;;;;3.50;2.90;;;18.80;91.90;;;;;;5015328;28;20038;-78
2023/08/22 00:28:40;;;;;;;5.13;3.20;;;18.80;92.00;;;;;;5003054;28;20047;-79
2023/08/22 00:31:06;;;;;;;8.52;3.45;;;18.80;92.10;;;;;;5016459;28;20044;-77
2023/08/22 00:33:31;;;;;;;8.38;3.15;;;18.80;92.00;;;;;;5000069;28;20060;-78
2023/08/22 00:35:57;;;;;;;4.25;3.17;;;18.80;92.10;;;;;;5002807;28;20029;-77
2023/08/22 00:38:22;;;;;;;7.25;4.43;;;18.70;92.20;;;;;;5012996;28;20030;-77
2023/08/22 00:40:48;;;;;;;6.10;3.42;;;18.70;92.00;;;;;;5001520;28;20028;-77
2023/08/22 00:43:14;;;;;;;5.15;3.28;;;18.60;92.10;;;;;;5001206;28;20096;-77
2023/08/22 00:45:40;;;;;;;4.28;3.00;;;18.60;92.20;;;;;;5000306;28;20800;-78
2023/08/22 00:48:06;;;;;;;3.47;3.00;;;18.70;92.30;;;;;;5011816;28;20044;-78
2023/08/22 00:50:32;;;;;;;3.58;3.17;;;18.50;92.10;;;;;;5014512;28;20494;-77
2023/08/22 00:52:58;;;;;;;3.75;2.90;;;18.50;92.80;;;;;;4998708;28;20129;-77
2023/08/22 00:55:24;;;;;;;3.40;2.65;;;18.50;92.40;;;;;;5014680;28;20125;-78
2023/08/22 00:57:49;;;;;;;2.83;2.55;;;18.40;92.30;;;;;;4997082;28;20129;-77
2023/08/22 01:00:15;;;;;;;3.10;2.65;;;18.30;92.50;;;;;;4998949;28;20084;-78
2023/08/22 01:02:41;;;;;;;5.50;4.15;;;18.30;92.50;;;;;;5000497;28;20030;-77
2023/08/22 01:05:07;;;;;;;10.18;4.97;;;18.30;92.40;;;;;;4988184;28;20049;-77
2023/08/22 01:07:45;;;;;;;9.68;4.47;;;18.20;92.50;;;;;;4988384;28;20092;-78
2023/08/22 01:10:28;;;;;;;4.28;3.88;;;18.10;92.40;;;;;;5001138;28;20036;-78
2023/08/22 01:13:24;;;;;;;5.78;2.65;;;18.10;92.40;;;;;;4990525;28;20505;-78
2023/08/22 01:15:49;;;;;;;4.75;3.88;;;18.10;92.30;;;;;;4997151;28;20030;-78
2023/08/22 01:18:15;;;;;;;4.93;3.17;;;18.10;92.30;;;;;;4987712;28;20038;-77
2023/08/22 01:20:41;;;;;;;4.22;3.65;;;18.10;92.50;;;;;;5013769;28;20040;-78
2023/08/22 01:23:06;;;;;;;9.57;4.35;;;18.00;92.40;;;;;;5003568;28;20033;-78
2023/08/22 01:25:32;;;;;;;5.07;3.42;;;18.00;92.40;;;;;;5002854;28;20026;-78
2023/08/22 01:28:27;;;;;;;4.68;2.70;;;18.00;92.50;;;;;;5016463;28;20033;-78
2023/08/22 01:31:14;;;;;;;5.88;2.85;;;18.10;92.70;;;;;;4996439;28;20044;-78
2023/08/22 01:33:46;;;;;;;3.65;2.60;;;18.00;92.50;;;;;;5013583;28;20034;-79
2023/08/22 01:36:12;;;;;;;4.90;3.90;;;18.00;92.60;;;;;;5000361;28;20037;-77
2023/08/22 01:38:37;;;;;;;10.02;4.72;;;18.00;92.50;;;;;;5018354;28;20283;-77
2023/08/22 01:41:03;;;;;;;7.30;4.80;;;17.90;92.50;;;;;;5000932;28;20030;-78
2023/08/22 01:43:28;;;;;;;4.40;3.00;;;17.90;92.70;;;;;;4994900;28;20402;-77
2023/08/22 01:45:54;;;;;;;4.47;3.33;;;17.90;92.60;;;;;;4994578;28;20488;-78
2023/08/22 01:48:20;;;;;;;3.97;2.88;;;18.00;92.70;;;;;;5002836;28;20033;-78
2023/08/22 01:50:45;;;;;;;5.90;3.00;;;18.00;93.20;;;;;;5003150;28;20437;-78
2023/08/22 01:53:11;;;;;;;9.20;4.40;;;18.00;93.00;;;;;;4989753;28;20048;-78
2023/08/22 01:55:37;;;;;;;6.18;3.20;;;17.90;92.80;;;;;;4990894;28;20354;-78
2023/08/22 01:58:04;;;;;;;6.20;3.60;;;17.90;93.40;;;;;;5003682;28;20057;-77
2023/08/22 02:00:29;;;;;;;11.98;4.78;;;18.00;93.90;;;;;;5000513;28;20561;-77
2023/08/22 02:02:56;;;;;;;7.38;5.00;;;17.90;93.10;;;;;;5014302;28;20049;-77
2023/08/22 02:05:22;;;;;;;7.55;4.88;;;17.70;93.50;;;;;;5016123;28;20034;-78
2023/08/22 02:07:47;;;;;;;6.55;4.68;;;17.70;96.00;;;;;;5016732;28;20092;-78
2023/08/22 02:10:13;;;;;;;3.83;3.20;;;17.60;93.60;;;;;;5016798;28;20037;-78
2023/08/22 02:12:39;;;;;;;6.50;3.08;;;17.70;93.40;;;;;;4999799;28;20041;-77
2023/08/22 02:15:06;;;;;;;5.47;3.58;;;17.80;93.40;;;;;;5002616;28;20111;-79
2023/08/22 02:17:31;;;;;;;4.25;2.90;;;17.80;93.60;;;;;;5017937;28;20034;-78
2023/08/22 02:19:57;;;;;;;5.68;3.97;;;17.70;93.40;;;;;;5013687;28;20041;-78
2023/08/22 02:22:22;;;;;;;4.25;2.67;;;17.70;93.20;;;;;;5013835;28;20041;-78
2023/08/22 02:24:48;;;;;;;4.35;3.25;;;17.70;93.30;;;;;;5019254;28;20065;-78
2023/08/22 02:27:14;;;;;;;7.13;3.22;;;17.80;93.40;;;;;;5018339;28;20512;-78
2023/08/22 02:29:39;;;;;;;7.60;3.85;;;17.70;93.80;;;;;;5004391;28;21069;-78
2023/08/22 02:32:05;;;;;;;8.35;4.88;;;17.70;93.20;;;;;;5001665;28;20390;-78
2023/08/22 02:34:30;;;;;;;5.13;4.63;;;17.60;93.30;;;;;;4995146;28;20494;-78
2023/08/22 02:36:56;;;;;;;2.95;2.75;;;17.50;93.60;;;;;;4994040;28;20030;-78
2023/08/22 02:39:21;;;;;;;6.60;3.72;;;17.60;93.70;;;;;;5018267;28;20022;-77
2023/08/22 02:41:47;;;;;;;5.30;3.78;;;17.70;94.20;;;;;;5001091;28;20034;-77
2023/08/22 02:44:12;;;;;;;5.22;3.60;;;17.70;94.00;;;;;;5002238;28;20065;-78
2023/08/22 02:46:38;;;;;;;8.82;3.92;;;17.80;93.90;;;;;;4990701;28;20107;-78
2023/08/22 02:49:04;;;;;;;5.90;3.22;;;17.70;93.60;;;;;;5018240;28;20049;-78
2023/08/22 02:51:29;;;;;;;8.20;4.47;;;17.60;93.70;;;;;;5002696;28;20033;-78
2023/08/22 02:53:55;;;;;;;5.50;3.80;;;17.60;93.70;;;;;;5002135;28;20497;-78
2023/08/22 02:56:20;;;;;;;5.93;3.75;;;17.50;94.30;;;;;;5015678;28;20447;-78
2023/08/22 02:58:46;;;;;;;8.48;4.03;;;17.60;93.70;;;;;;5016091;28;20042;-78
2023/08/22 03:01:12;;;;;;;8.25;4.28;;;17.50;93.70;;;;;;4994327;28;20041;-78
2023/08/22 03:03:38;;;;;;;7.50;4.90;;;17.50;94.20;;;;;;5014122;28;20120;-77
2023/08/22 03:06:04;;;;;;;7.25;4.70;;;17.50;94.00;;;;;;5016923;28;20512;-78
2023/08/22 03:08:29;;;;;;;6.72;4.50;;;17.40;93.80;;;;;;5015128;28;20033;-78
2023/08/22 03:11:01;;;;;;;6.22;4.97;;;17.40;94.50;;;;;;5012378;28;20480;-78
2023/08/22 03:13:30;;;;;;;6.10;4.28;;;17.40;94.10;;;;;;5015781;28;20033;-78
2023/08/22 03:15:58;;;;;;;4.43;3.65;;;17.30;94.10;;;;;;4984967;28;20037;-78
2023/08/22 03:18:24;;;;;;;7.60;4.47;;;17.30;94.00;;;;;;4988654;28;20038;-78
2023/08/22 03:20:52;;;;;;;10.93;4.78;;;17.20;94.10;;;;;;4994365;28;20485;-78
2023/08/22 03:23:18;;;;;;;4.95;3.30;;;17.20;94.10;;;;;;5002699;28;20027;-78
2023/08/22 03:25:43;;;;;;;8.23;4.63;;;17.30;94.20;;;;;;4999308;28;20037;-78
2023/08/22 03:28:09;;;;;;;5.63;4.63;;;17.20;94.10;;;;;;4994184;28;20061;-78
2023/08/22 03:30:34;;;;;;;3.90;3.35;;;17.20;93.90;;;;;;5011681;28;20521;-78
2023/08/22 03:33:00;;;;;;;6.13;3.90;;;17.10;93.90;;;;;;5015766;28;20060;-78
2023/08/22 03:35:25;;;;;;;4.25;3.05;;;17.10;94.10;;;;;;5015616;28;20065;-78
2023/08/22 03:37:51;;;;;;;3.45;2.80;;;17.00;94.10;;;;;;4987693;28;20473;-78
2023/08/22 03:40:16;;;;;;;5.00;3.75;;;17.00;94.30;;;;;;4997841;28;20040;-78
2023/08/22 03:42:42;;;;;;;4.45;2.90;;;16.90;94.30;;;;;;5015154;28;20029;-78
2023/08/22 03:45:09;;;;;;;6.55;3.55;;;16.90;94.50;;;;;;4988347;28;20021;-77
2023/08/22 03:47:34;;;;;;;3.97;2.78;;;16.90;94.40;;;;;;5017974;28;20033;-77
2023/08/22 03:50:00;;;;;;;3.88;3.17;;;17.00;95.20;;;;;;5015860;28;20025;-79
2023/08/22 03:52:26;;;;;;;6.90;3.78;;;17.00;94.70;;;;;;5015128;28;20053;-78
2023/08/22 03:54:51;;;;;;;4.53;2.88;;;16.90;95.50;;;;;;5004508;28;20037;-78
2023/08/22 03:57:17;;;;;;;4.75;2.55;;;16.90;95.20;;;;;;5015303;28;20524;-78
2023/08/22 03:59:42;;;;;;;3.75;2.92;;;16.90;94.70;;;;;;5015866;28;20044;-78
2023/08/22 04:02:08;;;;;;;5.18;3.10;;;16.80;94.70;;;;;;5013412;28;20076;-78
2023/08/22 04:04:33;;;;;;;5.10;2.95;;;16.70;95.00;;;;;;4996978;28;20053;-78
2023/08/22 04:06:59;;;;;;;6.93;3.13;;;16.70;95.00;;;;;;4993552;28;20040;-78
2023/08/22 04:09:25;;;;;;;4.38;2.67;;;16.70;95.00;;;;;;5012516;28;20095;-78
2023/08/22 04:11:51;;;;;;;4.10;2.50;;;16.70;95.20;;;;;;5011345;28;20421;-78
2023/08/22 04:14:16;;;;;;;7.53;2.92;;;16.70;95.50;;;;;;4995953;28;20063;-78
2023/08/22 04:16:42;;;;;;;7.28;3.78;;;16.80;95.70;;;;;;4987218;28;20892;-78
2023/08/22 04:19:08;;;;;;;8.93;3.58;;;16.90;95.30;;;;;;5015339;28;20034;-77
2023/08/22 04:21:33;;;;;;;6.35;3.35;;;16.90;95.50;;;;;;5000804;28;20152;-76
2023/08/22 04:23:59;;;;;;;5.20;3.25;;;16.80;95.60;;;;;;4989201;28;20048;-77
2023/08/22 04:26:24;;;;;;;4.72;3.03;;;16.80;95.30;;;;;;5015700;28;20044;-76
2023/08/22 04:28:50;;;;;;;7.05;3.47;;;16.80;96.10;;;;;;5016977;28;20132;-77
2023/08/22 04:31:15;;;;;;;6.63;2.97;;;16.90;96.00;;;;;;5013117;28;20032;-78
2023/08/22 04:33:41;;;;;;;3.97;2.88;;;16.80;95.90;;;;;;4981343;28;20044;-77
2023/08/22 04:36:06;;;;;;;8.90;4.55;;;16.80;95.70;;;;;;5001130;28;20527;-78
2023/08/22 04:38:32;;;;;;;5.40;3.67;;;16.80;96.90;;;;;;4988219;28;20029;-77
2023/08/22 04:40:57;;;;;;;11.35;4.43;;;16.70;96.60;;;;;;5013784;28;20038;-78
2023/08/22 04:43:23;;;;;;;8.45;4.60;;;16.70;96.40;;;;;;4996608;28;20029;-77
2023/08/22 04:45:52;;;;;;;6.32;4.18;;;16.70;97.20;;;;;;5000279;28;20033;-78
2023/08/22 04:48:17;;;;;;;5.68;4.15;;;16.80;96.00;;;;;;4979405;28;20564;-78
2023/08/22 04:50:43;;;;;;;6.65;3.55;;;16.60;95.90;;;;;;5012322;28;20030;-77
2023/08/22 04:53:09;;;;;;;4.15;3.75;;;16.60;96.30;;;;;;5000001;28;20038;-77
2023/08/22 04:55:34;;;;;;;6.85;4.10;;;16.50;96.20;;;;;;4981878;28;20072;-77
2023/08/22 04:58:00;;;;;;;4.90;3.40;;;16.60;96.20;;;;;;5015453;28;20022;-78
2023/08/22 05:00:25;;;;;;;5.25;2.90;;;16.60;96.30;;;;;;4997997;28;20037;-77
2023/08/22 05:02:51;;;;;;;8.52;3.92;;;16.60;96.80;;;;;;4981367;28;20425;-78
2023/08/22 05:05:17;;;;;;;6.45;3.30;;;16.50;96.40;;;;;;5012139;28;20037;-77
2023/08/22 05:07:42;;;;;;;6.05;4.10;;;16.50;96.60;;;;;;4987420;28;20345;-78
2023/08/22 05:10:08;;;;;;;7.57;5.35;;;16.60;96.50;;;;;;4980392;28;20060;-78
2023/08/22 05:12:34;;;;;;;9.73;4.93;;;16.50;97.20;;;;;;4995417;28;20041;-79
2023/08/22 05:14:59;;;;;;;10.20;4.82;;;16.50;98.30;;;;;;4997001;28;20037;-79
2023/08/22 05:17:25;;;;;;;8.52;4.90;;;16.40;98.90;;;;;;4977584;28;20029;-80
2023/08/22 05:19:50;;;;;;;8.30;5.38;;;16.50;98.90;;;;;;5017209;28;20128;-80
2023/08/22 05:22:16;;;;;;;11.25;4.70;;;16.50;97.60;;;;;;5003519;28;20393;-80
2023/08/22 05:24:41;;;;;;;8.25;5.38;;;16.50;99.10;;;;;;5016115;28;20488;-79
2023/08/22 05:27:07;;;;;;;6.93;5.07;;;16.40;98.70;;;;;;5015717;28;20120;-80
2023/08/22 05:29:32;;;;;;;6.85;4.95;;;16.40;97.60;;;;;;5003597;28;20119;-79
2023/08/22 05:31:58;;;;;;;10.63;5.32;;;16.50;99.10;;;;;;5001500;28;20702;-80
2023/08/22 05:34:24;;;;;;;8.40;6.07;;;16.40;99.90;;;;;;4989130;28;20335;-80
2023/08/22 05:36:49;;;;;;;6.35;5.38;;;16.40;99.90;;;;;;5013957;28;20096;-79
2023/08/22 05:39:15;;;;;;;5.57;3.75;;;16.50;99.90;;;;;;4994903;28;20131;-80
2023/08/22 05:41:40;;;;;;;3.22;2.90;;;16.50;98.90;;;;;;4989456;28;20029;-80
2023/08/22 05:44:06;;;;;;;4.85;3.50;;;16.70;98.70;;;;;;5004471;28;20405;-79
2023/08/22 05:46:31;;;;;;;5.38;4.03;;;16.90;98.90;;;;;;5015549;28;20454;-79
2023/08/22 05:48:57;;;;;;;5.43;3.45;;;17.10;98.50;;;;;;5006445;28;20039;-79
2023/08/22 05:51:22;;;;;;;8.23;4.47;;;17.20;98.60;;;;;;5022472;28;20061;-78
2023/08/22 05:53:48;;;;;;;9.55;4.03;;;17.10;98.10;;;;;;4989287;28;20058;-78
2023/08/22 05:56:13;;;;;;;5.20;4.55;;;17.20;98.00;;;;;;5017786;28;20085;-79
2023/08/22 05:58:39;;;;;;;7.03;4.88;;;17.30;99.50;;;;;;5000356;28;20175;-79
2023/08/22 06:01:09;;;;;;;5.28;3.53;;;17.40;99.00;;;;;;4983975;28;20018;-79
2023/08/22 06:03:35;;;;;;;8.20;4.43;;;17.50;98.40;;;;;;5021495;28;20932;-80
2023/08/22 06:06:01;;;;;;;6.90;4.20;;;17.60;98.80;;;;;;4988005;28;20422;-79
2023/08/22 06:08:27;;;;;;;7.68;4.72;;;17.70;99.70;;;;;;5003261;28;20068;-80
2023/08/22 06:10:53;;;;;;;5.00;2.90;;;17.90;98.80;;;;;;5005637;28;20022;-79
2023/08/22 06:13:18;;;;;;;7.80;5.03;;;18.00;98.00;;;;;;5002223;28;20098;-79
2023/08/22 06:15:44;;;;;;;11.73;6.13;;;18.00;98.40;;;;;;4990340;28;20033;-79
2023/08/22 06:18:09;;;;;;;8.38;5.13;;;18.10;99.90;;;;;;5001101;28;20099;-78
2023/08/22 06:20:38;;;;;;;8.70;4.55;;;18.10;99.00;;;;;;5013443;28;20390;-79
2023/08/22 06:23:05;;;;;;;7.20;4.05;;;18.20;97.90;;;;;;4979285;28;20026;-79
2023/08/22 06:25:30;;;;;;;7.13;4.93;;;18.40;97.70;;;;;;4998671;28;20038;-79
2023/08/22 06:27:56;;;;;;;10.48;5.00;;;18.50;98.80;;;;;;5017876;28;20448;-79
2023/08/22 06:30:21;;;;;;;6.93;3.35;;;18.60;98.50;;;;;;5000911;28;20022;-78
2023/08/22 06:32:47;;;;;;;6.95;4.22;;;18.70;97.20;;;;;;5001415;28;20775;-79
2023/08/22 06:35:12;;;;;;;7.68;4.68;;;18.90;97.70;;;;;;5004457;28;20040;-79
2023/08/22 06:37:38;;;;;;;6.25;4.05;;;19.00;97.70;;;;;;5018536;28;20042;-78
2023/08/22 06:40:05;;;;;;;4.05;3.60;;;19.10;96.70;;;;;;4988209;28;20033;-78
2023/08/22 06:42:31;;;;;;;5.25;3.13;;;19.30;97.50;;;;;;4993420;28;20033;-78
2023/08/22 06:44:57;;;;;;;5.53;3.30;;;19.40;97.30;;;;;;4997534;28;20030;-78
2023/08/22 06:47:22;;;;;;;5.05;2.95;;;19.60;98.50;;;;;;5002485;28;20121;-78
2023/08/22 06:49:48;;;;;;;4.30;2.78;;;19.70;97.60;;;;;;4998730;28;20076;-78
2023/08/22 06:52:14;;;;;;;8.75;4.78;;;19.90;97.30;;;;;;5015178;28;20102;-79
2023/08/22 06:54:39;;;;;;;3.35;2.78;;;20.10;98.10;;;;;;5013042;28;20045;-78
2023/08/22 06:57:06;;;;;;;9.73;5.22;;;20.20;96.80;;;;;;5002012;28;20492;-80
2023/08/22 06:59:31;;;;;;;4.40;3.13;;;20.40;96.80;;;;;;4999321;28;20045;-80
2023/08/22 07:01:58;;;;;;;8.52;4.30;;;20.50;96.00;;;;;;5015576;28;20538;-79
2023/08/22 07:04:23;;;;;;;7.70;4.13;;;20.70;96.20;;;;;;4987466;28;20036;-78
2023/08/22 07:06:49;;;;;;;7.78;4.22;;;21.00;95.80;;;;;;4989476;28;20038;-79
2023/08/22 07:09:14;;;;;;;10.23;4.40;;;21.10;95.50;;;;;;5012580;28;20504;-79
2023/08/22 07:11:40;;;;;;;6.93;3.45;;;21.30;95.80;;;;;;5019266;28;20120;-78
2023/08/22 07:14:06;;;;;;;7.03;4.05;;;21.40;94.90;;;;;;4989932;28;20026;-80
2023/08/22 07:16:31;;;;;;;7.38;4.10;;;21.60;94.50;;;;;;4997971;28;20030;-78
2023/08/22 07:18:57;;;;;;;6.55;3.78;;;21.80;94.70;;;;;;5016216;28;20041;-78
2023/08/22 07:21:22;;;;;;;8.07;3.80;;;21.90;94.60;;;;;;5007048;28;20160;-78
2023/08/22 07:23:48;;;;;;;5.20;2.65;;;22.10;94.50;;;;;;5005573;28;20057;-78
2023/08/22 07:26:14;;;;;;;14.20;6.50;;;22.20;94.50;;;;;;5016800;28;20041;-77
2023/08/22 07:28:39;;;;;;;14.68;6.80;;;22.30;95.00;;;;;;4994514;28;20033;-78
2023/08/22 07:31:05;;;;;;;13.52;6.40;;;22.50;96.30;;;;;;4992509;28;20041;-78
2023/08/22 07:33:31;;;;;;;15.55;6.43;;;22.70;96.50;;;;;;4979999;28;20589;-78
2023/08/22 07:35:57;;;;;;;11.35;5.03;;;22.80;97.00;;;;;;5013740;28;20105;-77
2023/08/22 07:38:22;;;;;;;9.98;6.63;;;22.90;95.10;;;;;;5013163;28;20052;-78
2023/08/22 07:40:48;;;;;;;12.48;6.55;;;23.10;97.40;;;;;;5015964;28;20044;-78
2023/08/22 07:43:13;;;;;;;9.85;5.63;;;23.20;97.70;;;;;;5018265;28;20037;-78
2023/08/22 07:45:40;;;;;;;4.97;3.25;;;23.30;95.40;;;;;;5015423;28;20026;-78
2023/08/22 07:48:06;;;;;;;13.02;5.20;;;23.40;95.80;;;;;;5019083;28;20075;-78
2023/08/22 07:50:32;;;;;;;12.05;5.57;;;23.50;95.40;;;;;;4985542;28;20032;-79
2023/08/22 07:52:58;;;;;;;10.30;2.17;;;23.70;96.70;;;;;;5017111;28;20037;-78
2023/08/22 07:55:23;;;;;;;5.40;3.05;;;23.80;95.20;;;;;;4999178;28;20113;-79
2023/08/22 07:57:50;;;;;;;5.32;3.63;;;23.80;94.20;;;;;;5002755;28;20415;-79
2023/08/22 08:00:16;;;;;;;3.45;2.60;;;23.90;94.70;;;;;;5012439;28;20033;-79
2023/08/22 08:02:42;;;;;;;5.60;3.50;;;24.10;95.00;;;;;;5015439;28;20497;-79
2023/08/22 08:05:07;;;;;;;7.85;3.75;;;24.40;94.80;;;;;;5017464;28;20055;-79
2023/08/22 08:07:34;;;;;;;3.58;2.38;;;24.80;97.60;;;;;;5011904;28;20100;-79
2023/08/22 08:10:00;;;;;;;6.93;2.92;;;24.90;95.40;;;;;;4988755;28;20033;-78
2023/08/22 08:12:25;;;;;;;8.35;2.67;;;25.10;96.70;;;;;;5003262;28;20555;-78
2023/08/22 08:14:51;;;;;;;7.22;2.97;;;25.40;96.40;;;;;;4989990;28;20063;-79
2023/08/22 08:17:18;;;;;;;6.03;3.05;;;25.60;96.20;;;;;;5000258;28;20116;-79
2023/08/22 08:19:44;;;;;;;11.30;2.80;;;25.80;96.10;;;;;;5017472;28;20049;-79
2023/08/22 08:22:11;;;;;;;7.53;3.60;;;25.90;95.80;;;;;;5016038;28;20480;-78
2023/08/22 08:24:37;;;;;;;13.40;6.30;;;26.10;95.80;;;;;;5002912;28;20041;-79
2023/08/22 08:27:02;;;;;;;13.27;5.45;;;26.50;96.20;;;;;;4989806;28;20040;-78
2023/08/22 08:29:28;;;;;;;10.57;6.43;;;26.80;95.50;;;;;;5001842;28;20069;-79
2023/08/22 08:31:56;;;;;;;8.80;5.07;;;27.10;95.00;;;;;;5004046;28;20053;-79
2023/08/22 08:34:22;;;;;;;11.57;5.55;;;27.20;94.60;;;;;;5014524;28;20037;-79
2023/08/22 08:36:48;;;;;;;10.35;5.15;;;27.40;95.30;;;;;;5013852;28;20504;-79
2023/08/22 08:39:14;;;;;;;7.50;3.90;;;27.70;94.60;;;;;;5000292;28;20041;-79
2023/08/22 08:41:41;;;;;;;11.90;5.07;;;27.90;94.00;;;;;;5015905;28;20051;-78
2023/08/22 08:44:07;;;;;;;8.27;4.00;;;28.10;94.00;;;;;;5011495;28;20473;-78
2023/08/22 08:46:33;;;;;;;9.10;4.10;;;28.30;93.70;;;;;;5002687;28;20037;-78
2023/08/22 08:48:59;;;;;;;6.43;3.45;;;28.50;93.20;;;;;;4996457;28;20145;-78
2023/08/22 08:51:24;;;;;;;9.05;3.83;;;28.60;93.10;;;;;;5000841;28;20125;-78
2023/08/22 08:53:50;;;;;;;7.93;3.10;;;28.90;92.50;;;;;;5004792;28;20064;-78
2023/08/22 08:56:16;;;;;;;7.93;3.20;;;29.10;92.30;;;;;;5020673;28;20036;-78
2023/08/22 08:58:42;;;;;;;11.45;3.20;;;29.30;92.00;;;;;;5017139;28;20087;-79
2023/08/22 09:01:07;;;;;;;9.07;2.45;;;29.50;90.10;;;;;;4992413;28;20036;-79
2023/08/22 09:03:33;;;;;;;5.63;3.30;;;29.70;90.60;;;;;;5004744;28;20030;-78
2023/08/22 09:05:59;;;;;;;6.25;3.85;;;29.80;90.40;;;;;;5019238;28;20030;-78
2023/08/22 09:08:24;;;;;;;9.27;3.65;;;29.90;89.70;;;;;;5015432;28;20033;-79
2023/08/22 09:10:51;;;;;;;10.82;3.17;;;29.90;90.30;;;;;;4991763;28;20040;-78
2023/08/22 09:13:16;;;;;;;9.95;2.78;;;30.00;89.00;;;;;;5017724;28;20520;-79
2023/08/22 09:15:42;;;;;;;7.57;2.67;;;30.20;89.30;;;;;;5018917;28;20026;-79
2023/08/22 09:18:12;;;;;;;6.30;3.00;;;30.20;89.90;;;;;;4992373;28;20029;-79
2023/08/22 09:20:37;;;;;;;10.07;3.80;;;30.30;88.50;;;;;;5000953;28;20025;-79
2023/08/22 09:23:03;;;;;;;5.97;3.35;;;30.40;88.70;;;;;;5006534;28;20045;-79
2023/08/22 09:25:39;;;;;;;6.03;2.72;;;30.70;87.70;;;;;;5022594;28;20069;-79
2023/08/22 09:28:09;;;;;;;9.38;4.38;;;30.60;87.60;;;;;;5004344;28;20030;-79
2023/08/22 09:30:35;;;;;;;6.45;2.72;;;30.80;87.40;;;;;;4991380;28;20053;-80
2023/08/22 09:33:00;;;;;;;7.38;3.50;;;30.90;87.00;;;;;;5001763;28;20435;-79
2023/08/22 09:35:32;;;;;;;10.68;4.25;;;31.00;86.70;;;;;;5018754;28;20037;-80
2023/08/22 09:38:06;;;;;;;13.63;4.05;;;31.10;85.80;;;;;;5000232;28;20068;-80
2023/08/22 09:40:31;;;;;;;7.85;3.35;;;31.30;85.90;;;;;;5016203;28;20038;-79
2023/08/22 09:42:57;;;;;;;8.50;2.97;;;31.40;85.30;;;;;;5018452;28;20393;-79
2023/08/22 09:45:22;;;;;;;9.20;4.43;;;31.60;86.00;;;;;;5015363;28;20084;-79
2023/08/22 09:47:49;;;;;;;6.40;2.50;;;31.80;84.40;;;;;;5022229;28;20030;-79
2023/08/22 09:50:16;;;;;;;7.25;3.20;;;32.00;83.80;;;;;;5001777;28;20052;-79
2023/08/22 09:52:41;;;;;;;6.43;3.50;;;32.10;82.90;;;;;;5004455;28;20048;-80
2023/08/22 09:55:07;;;;;;;6.03;3.25;;;32.40;81.50;;;;;;5004932;28;20030;-79
2023/08/22 09:57:33;;;;;;;8.73;3.88;;;32.40;81.30;;;;;;5015854;28;20044;-81
2023/08/22 09:59:59;;;;;;;9.77;3.60;;;32.40;81.10;;;;;;5017117;28;20036;-80
2023/08/22 10:02:25;;;;;;;8.90;4.35;;;32.60;79.80;;;;;;5002805;28;20041;-80
2023/08/22 10:04:50;;;;;;;7.28;3.85;;;32.80;78.80;;;;;;4981216;28;20034;-80
2023/08/22 10:07:16;;;;;;;11.10;3.53;;;33.10;78.80;;;;;;5019072;28;20077;-80
2023/08/22 10:09:42;;;;;;;9.20;3.80;;;33.40;77.10;;;;;;5003273;28;20037;-80
2023/08/22 10:12:12;;;;;;;9.88;2.95;;;33.60;78.10;;;;;;4997444;28;20068;-79
2023/08/22 10:14:49;;;;;;;11.15;3.80;;;33.70;77.50;;;;;;4984945;28;20156;-78
2023/08/22 10:17:14;;;;;;;5.07;2.63;;;33.90;75.40;;;;;;4996741;28;20044;-77
2023/08/22 10:19:43;;;;;;;7.88;3.20;;;33.90;77.10;;;;;;5002565;28;20489;-80
2023/08/22 10:22:13;;;;;;;9.75;3.45;;;33.90;74.90;;;;;;5005673;28;20498;-78
2023/08/22 10:24:40;;;;;;;6.47;3.00;;;34.20;75.50;;;;;;4984756;28;21439;-78
2023/08/22 10:27:26;;;;;;;11.27;3.30;;;34.20;74.50;;;;;;4974911;28;20033;-80
2023/08/22 10:30:14;;;;;;;4.97;2.60;;;34.10;74.80;;;;;;4963839;28;20498;-77
2023/08/22 10:32:41;;;;;;;4.57;2.67;;;34.00;73.70;;;;;;5013566;28;20587;-79
2023/08/22 10:35:12;;;;;;;7.75;2.65;;;33.90;73.70;;;;;;5005872;28;20520;-78
2023/08/22 10:37:46;;;;;;;9.32;3.38;;;34.00;71.00;;;;;;5016363;28;20034;-78
2023/08/22 10:40:19;;;;;;;7.50;3.28;;;33.90;70.10;;;;;;5002657;28;20441;-78
2023/08/22 10:42:46;;;;;;;10.55;3.88;;;34.10;69.10;;;;;;5016418;28;20037;-78
2023/08/22 10:45:16;;;;;;;5.50;2.97;;;33.70;69.20;;;;;;5020823;28;20033;-78
2023/08/22 10:47:41;;;;;;;9.23;3.72;;;33.90;72.90;;;;;;5013696;28;20041;-79
2023/08/22 10:50:10;;;;;;;8.25;3.70;;;33.90;73.10;;;;;;5017746;28;20034;-78
2023/08/22 10:52:37;;;;;;;8.13;3.35;;;34.00;71.90;;;;;;4998052;28;20370;-78
2023/08/22 10:55:03;;;;;;;7.43;3.20;;;34.10;71.30;;;;;;4989869;28;20029;-78
2023/08/22 10:57:30;;;;;;;8.95;4.53;;;34.10;72.20;;;;;;5015995;28;20036;-78
2023/08/22 10:59:58;;;;;;;7.10;3.30;;;34.10;72.40;;;;;;5002755;28;20148;-77
2023/08/22 11:02:35;;;;;;;7.22;3.53;;;33.90;69.70;;;;;;5014192;28;20040;-79
2023/08/22 11:05:02;;;;;;;8.02;3.85;;;33.90;71.80;;;;;;4999215;28;20037;-76
2023/08/22 11:07:29;;;;;;;8.02;3.67;;;34.00;67.70;;;;;;4996744;28;20029;-77
2023/08/22 11:09:54;;;;;;;10.40;3.58;;;33.90;67.60;;;;;;5013319;28;20474;-77
2023/08/22 11:12:21;;;;;;;8.32;3.25;;;33.90;68.00;;;;;;4999179;28;20038;-78
2023/08/22 11:14:47;;;;;;;4.95;2.90;;;33.70;72.10;;;;;;4988450;28;20033;-76
2023/08/22 11:17:14;;;;;;;5.00;2.75;;;33.80;71.20;;;;;;5015188;28;20048;-77
2023/08/22 11:19:39;;;;;;;6.53;3.00;;;33.80;70.20;;;;;;4999190;28;20037;-77
2023/08/22 11:22:08;;;;;;;10.43;3.40;;;33.80;69.70;;;;;;5016298;28;20030;-77
2023/08/22 11:24:33;;;;;;;4.72;3.20;;;33.70;69.10;;;;;;4995763;28;20059;-78
2023/08/22 11:27:05;;;;;;;6.20;3.22;;;33.70;69.80;;;;;;5002559;28;20560;-77
2023/08/22 11:29:47;;;;;;;6.72;2.38;;;33.80;68.80;;;;;;4988085;28;20061;-79
2023/08/22 11:32:22;;;;;;;10.18;3.10;;;33.90;68.80;;;;;;5014836;28;20053;-78
2023/08/22 11:34:52;;;;;;;6.22;2.92;;;34.00;69.00;;;;;;5034675;28;20077;-78
2023/08/22 11:37:18;;;;;;;10.05;3.13;;;34.00;69.80;;;;;;4991359;28;20121;-77
2023/08/22 11:39:51;;;;;;;8.63;2.35;;;34.10;68.00;;;;;;4979832;28;20037;-79
2023/08/22 11:42:17;;;;;;;4.85;2.28;;;34.20;67.50;;;;;;5003513;28;20111;-78
2023/08/22 11:45:13;;;;;;;3.88;2.15;;;34.10;68.20;;;;;;4984056;28;20037;-78
2023/08/22 11:47:42;;;;;;;5.03;2.00;;;34.10;67.20;;;;;;4988214;28;20041;-78
2023/08/22 11:50:11;;;;;;;4.97;1.77;;;34.10;67.10;;;;;;5012974;28;20033;-77
2023/08/22 11:52:39;;;;;;;2.78;1.48;;;34.10;67.10;;;;;;5013643;28;20495;-77
2023/08/22 11:55:06;;;;;;;5.32;2.00;;;34.10;67.30;;;;;;4996285;28;20033;-77
2023/08/22 11:57:33;;;;;;;7.30;2.60;;;34.10;66.10;;;;;;4988821;28;20460;-76
2023/08/22 12:00:00;;;;;;;2.92;2.00;;;34.20;64.50;;;;;;4987948;28;20029;-79
2023/08/22 12:02:26;;;;;;;4.05;3.08;;;34.10;65.90;;;;;;4961943;28;20031;-78
2023/08/22 12:04:55;;;;;;;3.22;2.53;;;34.20;65.20;;;;;;5001889;28;20033;-77
2023/08/22 12:07:21;;;;;;;6.80;2.22;;;34.20;65.80;;;;;;4998434;28;20037;-80
2023/08/22 12:10:16;;;;;;;7.53;2.53;;;34.20;65.40;;;;;;5000240;28;20030;-78
2023/08/22 12:12:42;;;;;;;4.32;2.45;;;34.10;66.40;;;;;;4987977;28;20573;-78
2023/08/22 12:15:08;;;;;;;11.13;2.97;;;34.10;65.40;;;;;;5010665;28;20105;-79
2023/08/22 12:17:33;;;;;;;4.50;2.30;;;34.10;66.60;;;;;;5000510;28;20445;-78
2023/08/22 12:19:59;;;;;;;4.35;2.20;;;34.10;65.30;;;;;;5002164;28;20076;-78
2023/08/22 12:22:25;;;;;;;4.55;2.20;;;34.10;66.10;;;;;;5013984;28;20025;-79
2023/08/22 12:24:50;;;;;;;4.07;2.13;;;34.20;65.10;;;;;;5018311;28;20088;-80
2023/08/22 12:27:16;;;;;;;5.18;1.95;;;34.40;65.70;;;;;;5016134;28;20034;-81
2023/08/22 12:29:42;;;;;;;6.82;2.10;;;34.40;65.10;;;;;;5012252;28;20032;-78
2023/08/22 12:32:07;;;;;;;2.60;1.58;;;34.40;65.10;;;;;;5015505;28;20099;-79
2023/08/22 12:34:33;;;;;;;5.07;1.33;;;34.40;64.60;;;;;;5013166;28;20029;-79
2023/08/22 12:36:58;;;;;;;3.90;2.03;;;34.40;64.90;;;;;;4998870;28;20086;-78
2023/08/22 12:39:24;;;;;;;2.92;1.50;;;34.40;64.10;;;;;;5000196;28;20038;-77
2023/08/22 12:41:50;;;;;;;4.43;1.83;;;34.40;63.80;;;;;;4980132;28;20039;-77
2023/08/22 12:44:15;;;;;;;4.70;1.63;;;34.50;64.20;;;;;;5015678;28;20050;-78